Terminal Aerodrome Forecast
Issued by NWS

Home | Current Version | Previous Version | Text Only | Print | Product List | Glossary On
Versions: 1 2 3 4 5 6 7 8 9 10 11 12 13 14 15 16 17
000
FTUS44 KLZK 041700
TAFBPK
TAF
KBPK 041739Z 0418/0518 36010G18KT 5SM -FZRA BR OVC012
      TEMPO 0418/0421 2SM -FZRA BR BKN008 OVC015
     FM042100 01010G18KT 5SM -PLSN BR BKN008 OVC012
     FM050000 01010G18KT 4SM -SN BR OVC008
     FM050400 36010KT 3SM -SN BR OVC005
     FM050700 02009KT 2SM -SN BR BKN005 OVC012=

USA.gov is the U.S. government's official web portal to all federal, state and local government web resources and services.